createdAt,value
2019-05-11T00:00:16.470Z,0.93
2019-05-11T00:02:44.757Z,1.23
2019-05-11T00:05:13.197Z,1.10
2019-05-11T00:07:41.591Z,0.97
2019-05-11T00:10:09.903Z,0.97
2019-05-11T00:12:38.253Z,1.33
2019-05-11T00:15:06.634Z,1.30
2019-05-11T00:17:34.937Z,2.27
2019-05-11T00:20:03.620Z,0.77
2019-05-11T00:22:31.921Z,1.47
2019-05-11T00:25:00.219Z,0.80
2019-05-11T00:27:28.562Z,1.30
2019-05-11T00:29:56.834Z,1.20
2019-05-11T00:32:25.118Z,1.17
2019-05-11T00:34:53.603Z,2.00
2019-05-11T00:37:21.977Z,1.77
2019-05-11T00:39:50.258Z,2.00
2019-05-11T00:42:18.596Z,1.17
2019-05-11T00:44:47.587Z,1.80
2019-05-11T00:47:15.964Z,1.00
2019-05-11T00:49:44.286Z,1.20
2019-05-11T00:52:12.628Z,0.90
2019-05-11T00:54:41.040Z,1.50
2019-05-11T00:57:09.313Z,1.73
2019-05-11T00:59:37.597Z,1.17
2019-05-11T01:02:06.087Z,1.53
2019-05-11T01:04:34.378Z,1.63
2019-05-11T01:07:02.783Z,1.57
2019-05-11T01:09:31.131Z,2.20
2019-05-11T01:11:59.462Z,1.30
2019-05-11T01:14:27.841Z,0.90
2019-05-11T01:16:56.252Z,0.83
2019-05-11T01:19:24.587Z,1.40
2019-05-11T01:21:52.885Z,1.23
2019-05-11T01:24:21.261Z,1.27
2019-05-11T01:26:49.635Z,1.00
2019-05-11T01:29:18.055Z,0.73
2019-05-11T01:31:46.696Z,1.63
2019-05-11T01:34:15.119Z,1.27
2019-05-11T01:36:43.457Z,1.07
2019-05-11T01:39:12.445Z,1.97
2019-05-11T01:41:40.749Z,0.90
2019-05-11T01:44:09.078Z,0.70
2019-05-11T01:46:37.362Z,1.00
2019-05-11T01:49:05.637Z,0.77
2019-05-11T01:51:33.974Z,1.27
2019-05-11T01:54:02.758Z,1.17
2019-05-11T01:56:31.016Z,1.07
2019-05-11T01:58:59.452Z,1.10
2019-05-11T02:01:27.784Z,0.97
2019-05-11T02:03:56.078Z,1.07
2019-05-11T02:06:24.417Z,1.83
2019-05-11T02:08:52.794Z,1.43
2019-05-11T02:11:21.516Z,1.73
2019-05-11T02:13:49.897Z,1.00
2019-05-11T02:16:18.185Z,2.20
2019-05-11T02:18:46.527Z,1.57
2019-05-11T02:21:14.894Z,1.33
2019-05-11T02:23:44.239Z,1.20
2019-05-11T02:26:12.541Z,1.57
2019-05-11T02:28:40.821Z,1.13
2019-05-11T02:31:09.278Z,1.40
2019-05-11T02:33:37.621Z,1.47
2019-05-11T02:36:05.897Z,1.37
2019-05-11T02:38:34.308Z,1.20
2019-05-11T02:41:02.587Z,1.10
2019-05-11T02:43:30.924Z,1.40
2019-05-11T02:45:59.207Z,1.80
2019-05-11T02:48:27.480Z,1.93
2019-05-11T02:50:55.953Z,1.30
2019-05-11T02:53:24.245Z,1.80
2019-05-11T02:55:52.654Z,1.03
2019-05-11T02:58:20.981Z,1.60
2019-05-11T03:00:49.409Z,1.30
2019-05-11T03:03:17.766Z,1.83
2019-05-11T03:05:46.279Z,1.50
2019-05-11T03:08:14.623Z,1.70
2019-05-11T03:10:42.921Z,1.20
2019-05-11T03:13:11.359Z,1.40
2019-05-11T03:15:39.618Z,1.07
2019-05-11T03:18:07.942Z,2.13
2019-05-11T03:20:36.252Z,1.60
2019-05-11T03:23:04.530Z,1.37
2019-05-11T03:25:33.020Z,1.67
2019-05-11T03:28:01.302Z,1.87
2019-05-11T03:30:29.668Z,1.33
2019-05-11T03:32:57.973Z,1.87
2019-05-11T03:35:26.257Z,1.43
2019-05-11T03:37:54.739Z,1.73
2019-05-11T03:40:22.980Z,1.87
2019-05-11T03:42:51.456Z,2.10
2019-05-11T03:45:19.780Z,2.00
2019-05-11T03:47:48.342Z,1.60
2019-05-11T03:50:16.620Z,1.93
2019-05-11T03:52:44.944Z,2.67
2019-05-11T03:55:13.227Z,1.50
2019-05-11T03:57:41.587Z,1.70
2019-05-11T04:00:10.038Z,1.97
2019-05-11T04:02:38.647Z,1.97
2019-05-11T04:05:07.107Z,1.70
2019-05-11T04:07:35.444Z,2.10
2019-05-11T04:10:05.987Z,1.83
2019-05-11T04:12:35.606Z,2.23
2019-05-11T04:15:06.354Z,1.87
2019-05-11T04:17:34.976Z,1.83
2019-05-11T04:20:04.071Z,1.80
2019-05-11T04:22:32.361Z,2.20
2019-05-11T04:25:00.758Z,1.53
2019-05-11T04:27:29.040Z,1.50
2019-05-11T04:29:57.395Z,1.43
2019-05-11T04:32:25.726Z,2.00
2019-05-11T04:34:54.033Z,1.40
2019-05-11T04:37:22.452Z,1.67
2019-05-11T04:39:50.741Z,2.60
2019-05-11T04:42:19.067Z,1.97
2019-05-11T04:44:51.897Z,1.30
2019-05-11T04:47:17.481Z,1.53
2019-05-11T04:49:45.888Z,1.57
2019-05-11T04:52:14.347Z,1.77
2019-05-11T04:54:42.630Z,1.50
2019-05-11T04:57:10.992Z,1.87
2019-05-11T04:59:39.280Z,1.57
2019-05-11T05:02:07.611Z,2.40
2019-05-11T05:04:35.916Z,1.70
2019-05-11T05:07:05.442Z,1.40
2019-05-11T05:09:36.233Z,2.50
2019-05-11T05:12:08.544Z,1.90
2019-05-11T05:14:34.936Z,2.30
2019-05-11T05:17:03.274Z,1.80
2019-05-11T05:19:31.674Z,1.83
2019-05-11T05:22:00.013Z,2.30
2019-05-11T05:24:28.315Z,1.57
2019-05-11T05:26:56.649Z,1.67
2019-05-11T05:29:24.955Z,1.60
2019-05-11T05:31:54.014Z,2.23
2019-05-11T05:34:22.415Z,1.80
2019-05-11T05:36:50.710Z,2.47
2019-05-11T05:39:18.987Z,1.73
2019-05-11T05:41:56.502Z,1.17
2019-05-11T05:44:17.556Z,1.60
2019-05-11T05:46:45.876Z,2.00
2019-05-11T05:49:14.287Z,2.27
2019-05-11T05:51:42.601Z,1.77
2019-05-11T05:54:10.885Z,2.07
2019-05-11T05:56:39.404Z,2.03
2019-05-11T05:59:08.052Z,2.10
2019-05-11T06:01:36.431Z,1.67
2019-05-11T06:04:04.754Z,2.13
2019-05-11T06:06:33.187Z,1.83
2019-05-11T06:09:01.684Z,1.60
2019-05-11T06:11:29.961Z,1.87
2019-05-11T06:13:58.330Z,1.93
2019-05-11T06:16:27.111Z,1.80
2019-05-11T06:18:55.396Z,1.30
2019-05-11T06:21:24.346Z,1.30
2019-05-11T06:23:52.660Z,1.47
2019-05-11T06:26:23.481Z,2.00
2019-05-11T06:28:51.721Z,1.40
2019-05-11T06:31:20.921Z,1.07
2019-05-11T06:33:49.386Z,1.60
2019-05-11T06:36:17.671Z,1.60
2019-05-11T06:38:45.959Z,1.53
2019-05-11T06:41:14.289Z,2.20
2019-05-11T06:43:42.776Z,1.70
2019-05-11T06:46:11.155Z,1.67
2019-05-11T06:48:39.420Z,2.20
2019-05-11T06:51:07.836Z,2.00
2019-05-11T06:53:36.148Z,1.50
2019-05-11T06:56:04.502Z,1.80
2019-05-11T06:58:32.758Z,1.67
2019-05-11T07:01:01.036Z,2.03
2019-05-11T07:03:29.352Z,1.20
2019-05-11T07:05:57.670Z,1.50
2019-05-11T07:08:26.078Z,1.37
2019-05-11T07:10:54.424Z,2.13
2019-05-11T07:13:22.808Z,2.10
2019-05-11T07:15:51.137Z,1.80
2019-05-11T07:18:19.430Z,2.13
2019-05-11T07:20:50.870Z,1.47
2019-05-11T07:23:17.760Z,1.23
2019-05-11T07:25:46.053Z,2.00
2019-05-11T07:28:14.445Z,1.23
2019-05-11T07:30:42.761Z,1.70
2019-05-11T07:33:11.058Z,1.50
2019-05-11T07:35:39.471Z,1.90
2019-05-11T07:38:08.383Z,1.37
2019-05-11T07:40:38.450Z,1.43
2019-05-11T07:43:09.732Z,1.20
2019-05-11T07:45:38.661Z,1.50
2019-05-11T07:48:08.027Z,1.63
2019-05-11T07:50:38.730Z,1.23
2019-05-11T07:53:08.163Z,2.10
2019-05-11T07:55:38.492Z,1.43
2019-05-11T07:58:08.019Z,1.13
2019-05-11T08:00:39.595Z,1.60
2019-05-11T08:03:08.848Z,1.30
2019-05-11T08:05:38.561Z,1.63
2019-05-11T08:08:08.706Z,2.00
2019-05-11T08:10:39.094Z,1.03
2019-05-11T08:13:09.134Z,1.70
2019-05-11T08:15:38.544Z,1.27
2019-05-11T08:18:08.570Z,1.33
2019-05-11T08:20:38.557Z,1.37
2019-05-11T08:23:09.108Z,1.00
2019-05-11T08:25:37.935Z,1.13
2019-05-11T08:28:11.564Z,1.40
2019-05-11T08:30:38.161Z,1.20
2019-05-11T08:33:08.652Z,1.90
2019-05-11T08:35:38.812Z,1.30
2019-05-11T08:38:08.790Z,2.33
2019-05-11T08:40:37.946Z,1.90
2019-05-11T08:43:08.630Z,1.47
2019-05-11T08:45:39.107Z,1.23
2019-05-11T08:48:08.146Z,1.50
2019-05-11T08:50:38.294Z,1.23
2019-05-11T08:53:08.648Z,1.40
2019-05-11T08:55:38.198Z,1.67
2019-05-11T08:58:07.917Z,1.33
2019-05-11T09:00:38.768Z,1.07
2019-05-11T09:03:08.522Z,1.20
2019-05-11T09:05:38.482Z,1.37
2019-05-11T09:08:08.241Z,0.87
2019-05-11T09:10:39.539Z,1.20
2019-05-11T09:13:08.064Z,1.00
2019-05-11T09:15:40.249Z,1.20
2019-05-11T09:18:08.386Z,1.20
2019-05-11T09:20:37.827Z,1.97
2019-05-11T09:23:08.222Z,1.57
2019-05-11T09:25:38.535Z,1.40
2019-05-11T09:28:08.193Z,1.67
2019-05-11T09:30:37.801Z,1.67
2019-05-11T09:33:08.422Z,1.47
2019-05-11T09:35:47.543Z,1.50
2019-05-11T09:38:08.068Z,2.00
2019-05-11T09:40:38.534Z,1.20
2019-05-11T09:43:08.548Z,2.00
2019-05-11T09:45:45.858Z,1.27
2019-05-11T09:48:08.562Z,2.37
2019-05-11T09:50:38.753Z,1.43
2019-05-11T09:53:08.490Z,1.47
2019-05-11T09:55:38.851Z,1.70
2019-05-11T09:58:08.497Z,1.70
2019-05-11T10:00:38.860Z,1.93
2019-05-11T10:03:08.189Z,1.80
2019-05-11T10:05:38.284Z,1.50
2019-05-11T10:08:07.909Z,1.80
2019-05-11T10:10:38.341Z,1.40
2019-05-11T10:13:08.075Z,1.47
2019-05-11T10:15:38.546Z,1.63
2019-05-11T10:18:08.192Z,1.67
2019-05-11T10:20:39.042Z,1.53
2019-05-11T10:23:08.338Z,1.10
2019-05-11T10:25:38.811Z,1.13
2019-05-11T10:28:08.720Z,1.33
2019-05-11T10:30:38.556Z,1.43
2019-05-11T10:33:08.261Z,1.13
2019-05-11T10:35:37.816Z,1.90
2019-05-11T10:38:08.828Z,1.50
2019-05-11T10:40:38.732Z,1.53
2019-05-11T10:43:07.929Z,1.30
2019-05-11T10:45:37.861Z,1.13
2019-05-11T10:48:08.646Z,1.30
2019-05-11T10:50:38.114Z,1.30
2019-05-11T10:53:08.016Z,1.40
2019-05-11T10:55:38.653Z,1.30
2019-05-11T10:58:08.630Z,1.40
2019-05-11T11:00:38.872Z,1.20
2019-05-11T11:03:08.484Z,1.17
2019-05-11T11:05:38.430Z,1.40
2019-05-11T11:08:11.234Z,1.20
2019-05-11T11:10:39.589Z,1.53
2019-05-11T11:13:08.446Z,0.70
2019-05-11T11:15:38.078Z,1.30
2019-05-11T11:18:08.615Z,0.93
2019-05-11T11:20:38.382Z,0.90
2019-05-11T11:23:08.820Z,0.70
2019-05-11T11:25:37.639Z,0.80
2019-05-11T11:28:08.496Z,1.13
2019-05-11T11:30:37.898Z,1.10
2019-05-11T11:33:07.956Z,1.03
2019-05-11T11:35:38.517Z,1.30
2019-05-11T11:38:08.595Z,1.10
2019-05-11T11:40:38.552Z,1.00
2019-05-11T11:43:08.623Z,1.10
2019-05-11T11:45:38.134Z,1.03
2019-05-11T11:48:08.663Z,0.60
2019-05-11T11:50:37.744Z,0.53
2019-05-11T11:53:08.440Z,0.60
2019-05-11T11:55:39.029Z,1.23
2019-05-11T11:58:08.383Z,0.60
2019-05-11T12:00:39.073Z,1.03
2019-05-11T12:03:07.982Z,0.70
2019-05-11T12:05:38.734Z,1.10
2019-05-11T12:08:08.313Z,1.10
2019-05-11T12:10:37.979Z,1.13
2019-05-11T12:13:08.457Z,0.77
2019-05-11T12:15:38.577Z,0.90
2019-05-11T12:18:08.247Z,0.70
2019-05-11T12:20:38.775Z,0.70
2019-05-11T12:23:08.754Z,0.93
2019-05-11T12:25:40.293Z,0.80
2019-05-11T12:28:08.019Z,0.70
2019-05-11T12:30:37.647Z,0.80
2019-05-11T12:33:08.097Z,0.70
2019-05-11T12:35:37.794Z,1.00
2019-05-11T12:38:07.801Z,0.63
2019-05-11T12:40:38.686Z,0.60
2019-05-11T12:43:08.201Z,0.53
2019-05-11T12:45:37.660Z,0.50
2019-05-11T12:48:06.229Z,0.67
2019-05-11T12:50:34.743Z,1.10
2019-05-11T12:53:03.046Z,0.50
2019-05-11T12:55:32.788Z,0.93
2019-05-11T12:58:01.178Z,0.70
2019-05-11T13:00:31.366Z,0.80
2019-05-11T13:03:00.031Z,0.87
2019-05-11T13:05:28.668Z,0.50
2019-05-11T13:07:58.650Z,0.60
2019-05-11T13:10:28.209Z,0.93
2019-05-11T13:12:58.198Z,1.00
2019-05-11T13:15:28.164Z,0.63
2019-05-11T13:17:58.157Z,1.07
2019-05-11T13:20:28.525Z,1.00
2019-05-11T13:22:58.575Z,0.57
2019-05-11T13:25:28.239Z,0.70
2019-05-11T13:27:58.161Z,0.40
2019-05-11T13:30:27.831Z,0.70
2019-05-11T13:32:58.018Z,0.40
2019-05-11T13:35:28.498Z,0.90
2019-05-11T13:37:58.494Z,0.80
2019-05-11T13:40:27.766Z,0.40
2019-05-11T13:42:58.187Z,0.77
2019-05-11T13:45:28.237Z,0.43
2019-05-11T13:47:59.193Z,0.50
2019-05-11T13:50:26.394Z,0.60
2019-05-11T13:52:54.721Z,0.57
2019-05-11T13:55:23.036Z,0.60
2019-05-11T13:57:51.333Z,1.13
2019-05-11T14:00:19.802Z,0.50
2019-05-11T14:02:48.708Z,0.80
2019-05-11T14:05:18.076Z,0.90
2019-05-11T14:07:48.279Z,0.77
2019-05-11T14:10:18.108Z,0.50
2019-05-11T14:12:47.725Z,0.50
2019-05-11T14:15:18.823Z,0.40
2019-05-11T14:17:48.568Z,0.70
2019-05-11T14:20:18.966Z,0.70
2019-05-11T14:22:47.920Z,0.50
2019-05-11T14:25:18.526Z,0.50
2019-05-11T14:27:47.809Z,0.80
2019-05-11T14:30:18.419Z,0.50
2019-05-11T14:32:47.796Z,0.87
2019-05-11T14:35:18.609Z,0.70
2019-05-11T14:37:48.503Z,0.93
2019-05-11T14:40:17.784Z,1.00
2019-05-11T14:42:48.753Z,0.80
2019-05-11T14:45:18.508Z,0.50
2019-05-11T14:47:47.797Z,0.60
2019-05-11T14:50:18.577Z,0.60
2019-05-11T14:52:48.841Z,0.53
2019-05-11T14:55:18.443Z,0.63
2019-05-11T14:57:48.635Z,0.60
2019-05-11T15:00:18.525Z,0.53
2019-05-11T15:02:49.295Z,0.60
2019-05-11T15:05:18.181Z,0.50
2019-05-11T15:07:47.926Z,0.87
2019-05-11T15:10:18.816Z,0.50
2019-05-11T15:12:48.880Z,0.50
2019-05-11T15:15:18.741Z,0.40
2019-05-11T15:17:49.373Z,0.80
2019-05-11T15:20:17.861Z,0.43
2019-05-11T15:22:48.613Z,0.53
2019-05-11T15:25:19.304Z,0.30
2019-05-11T15:27:48.706Z,0.50
2019-05-11T15:30:18.263Z,0.43
2019-05-11T15:32:48.175Z,1.00
2019-05-11T15:35:18.705Z,0.50
2019-05-11T15:37:47.927Z,0.60
2019-05-11T15:40:18.826Z,0.60
2019-05-11T15:42:48.618Z,0.50
2019-05-11T15:45:18.603Z,0.40
2019-05-11T15:47:48.695Z,0.50
2019-05-11T15:50:18.920Z,0.63
2019-05-11T15:52:48.768Z,0.90
2019-05-11T15:55:18.817Z,0.47
2019-05-11T15:57:48.286Z,0.70
2019-05-11T16:00:16.972Z,0.50
2019-05-11T16:02:45.374Z,0.60
2019-05-11T16:05:14.429Z,0.93
2019-05-11T16:07:42.893Z,0.70
2019-05-11T16:10:11.201Z,0.50
2019-05-11T16:12:39.497Z,0.50
2019-05-11T16:15:09.334Z,1.00
2019-05-11T16:17:40.142Z,0.70
2019-05-11T16:20:10.776Z,0.60
2019-05-11T16:22:39.093Z,0.70
2019-05-11T16:25:08.530Z,0.50
2019-05-11T16:27:37.920Z,0.60
2019-05-11T16:30:10.327Z,0.50
2019-05-11T16:32:38.800Z,0.33
2019-05-11T16:35:08.823Z,0.53
2019-05-11T16:37:38.034Z,0.40
2019-05-11T16:40:07.462Z,1.00
2019-05-11T16:42:35.791Z,1.33
2019-05-11T16:45:05.409Z,0.40
2019-05-11T16:47:33.737Z,0.60
2019-05-11T16:50:02.138Z,0.50
2019-05-11T16:52:30.414Z,0.60
2019-05-11T16:54:58.748Z,0.60
2019-05-11T16:57:26.998Z,0.60
2019-05-11T16:59:55.590Z,0.50
2019-05-11T17:02:23.889Z,0.70
2019-05-11T17:04:52.208Z,0.73
2019-05-11T17:07:20.474Z,0.60
2019-05-11T17:09:48.902Z,0.87
2019-05-11T17:12:18.010Z,0.50
2019-05-11T17:14:59.231Z,0.60
2019-05-11T17:17:27.885Z,0.47
2019-05-11T17:19:58.753Z,0.70
2019-05-11T17:22:28.196Z,0.63
2019-05-11T17:24:58.788Z,0.40
2019-05-11T17:27:28.564Z,0.40
2019-05-11T17:29:59.150Z,0.60
2019-05-11T17:32:29.194Z,0.40
2019-05-11T17:34:58.106Z,0.97
2019-05-11T17:37:28.552Z,0.77
2019-05-11T17:39:58.536Z,0.40
2019-05-11T17:42:26.546Z,0.60
2019-05-11T17:44:54.953Z,0.53
2019-05-11T17:47:23.803Z,0.80
2019-05-11T17:49:59.571Z,0.40
2019-05-11T17:52:22.219Z,0.30
2019-05-11T17:54:50.670Z,0.80
2019-05-11T17:57:18.914Z,0.50
2019-05-11T17:59:47.631Z,0.50
2019-05-11T18:02:18.053Z,0.57
2019-05-11T18:04:46.383Z,0.60
2019-05-11T18:07:25.214Z,0.40
2019-05-11T18:09:44.683Z,0.40
2019-05-11T18:12:13.031Z,0.80
2019-05-11T18:14:41.311Z,0.80
2019-05-11T18:17:10.386Z,0.30
2019-05-11T18:19:38.877Z,0.77
2019-05-11T18:22:08.286Z,0.50
2019-05-11T18:24:38.331Z,0.40
2019-05-11T18:27:08.337Z,0.87
2019-05-11T18:29:38.022Z,0.50
2019-05-11T18:32:06.524Z,0.60
2019-05-11T18:34:34.939Z,0.77
2019-05-11T18:37:03.216Z,0.40
2019-05-11T18:39:31.663Z,0.40
2019-05-11T18:41:59.968Z,0.53
2019-05-11T18:44:28.240Z,0.80
2019-05-11T18:46:59.095Z,0.50
2019-05-11T18:49:28.541Z,0.70
2019-05-11T18:51:58.644Z,0.60
2019-05-11T18:54:27.732Z,0.77
2019-05-11T18:56:56.238Z,0.50
2019-05-11T18:59:25.476Z,0.60
2019-05-11T19:01:53.783Z,0.47
2019-05-11T19:04:22.191Z,0.43
2019-05-11T19:06:50.494Z,0.57
2019-05-11T19:09:18.884Z,0.73
2019-05-11T19:11:48.954Z,0.40
2019-05-11T19:14:17.366Z,0.60
2019-05-11T19:16:45.669Z,0.80
2019-05-11T19:19:14.064Z,0.53
2019-05-11T19:21:42.415Z,0.40
2019-05-11T19:24:10.714Z,0.93
2019-05-11T19:26:39.062Z,0.60
2019-05-11T19:29:08.926Z,0.40
2019-05-11T19:31:38.561Z,0.80
2019-05-11T19:34:09.138Z,0.33
2019-05-11T19:36:38.200Z,0.47
2019-05-11T19:39:08.826Z,0.90
2019-05-11T19:41:37.458Z,0.60
2019-05-11T19:44:08.392Z,0.50
2019-05-11T19:46:38.862Z,0.33
2019-05-11T19:49:08.660Z,0.60
2019-05-11T19:51:42.059Z,0.40
2019-05-11T19:54:08.473Z,0.50
2019-05-11T19:56:38.376Z,0.53
2019-05-11T19:59:08.563Z,0.40
2019-05-11T20:01:37.165Z,0.60
2019-05-11T20:04:05.491Z,0.80
2019-05-11T20:06:33.809Z,0.50
2019-05-11T20:09:02.220Z,0.83
2019-05-11T20:11:30.527Z,1.07
2019-05-11T20:13:59.107Z,0.60
2019-05-11T20:16:27.434Z,0.40
2019-05-11T20:18:57.692Z,0.73
2019-05-11T20:21:25.729Z,0.80
2019-05-11T20:23:54.520Z,0.60
2019-05-11T20:26:22.793Z,1.20
2019-05-11T20:28:51.096Z,0.83
2019-05-11T20:31:19.968Z,1.03
2019-05-11T20:33:48.380Z,0.80
2019-05-11T20:36:17.758Z,1.00
2019-05-11T20:38:47.601Z,1.17
2019-05-11T20:41:16.247Z,0.60
2019-05-11T20:43:45.357Z,0.60
2019-05-11T20:46:13.843Z,0.40
2019-05-11T20:48:42.227Z,0.53
2019-05-11T20:51:10.623Z,1.30
2019-05-11T20:53:38.936Z,0.60
2019-05-11T20:56:08.577Z,0.50
2019-05-11T20:58:54.852Z,0.93
2019-05-11T21:01:23.862Z,0.60
2019-05-11T21:03:52.142Z,0.87
2019-05-11T21:06:20.490Z,0.50
2019-05-11T21:08:48.767Z,0.70
2019-05-11T21:11:18.022Z,0.80
2019-05-11T21:13:48.132Z,0.63
2019-05-11T21:16:16.634Z,0.50
2019-05-11T21:18:45.082Z,0.50
2019-05-11T21:21:13.425Z,0.70
2019-05-11T21:23:41.702Z,0.60
2019-05-11T21:26:10.104Z,0.90
2019-05-11T21:28:38.393Z,0.80
2019-05-11T21:31:08.052Z,1.00
2019-05-11T21:33:37.938Z,0.70
2019-05-11T21:36:08.667Z,0.60
2019-05-11T21:38:38.503Z,0.70
2019-05-11T21:41:08.601Z,0.60
2019-05-11T21:43:37.641Z,1.00
2019-05-11T21:46:08.176Z,0.70
2019-05-11T21:48:38.449Z,1.10
2019-05-11T21:51:08.515Z,1.07
2019-05-11T21:53:38.156Z,0.97
2019-05-11T21:56:08.159Z,0.80
2019-05-11T21:58:37.836Z,0.70
2019-05-11T22:01:08.914Z,0.80
2019-05-11T22:03:38.267Z,0.77
2019-05-11T22:06:08.585Z,0.57
2019-05-11T22:08:36.750Z,0.70
2019-05-11T22:11:08.728Z,1.07
2019-05-11T22:13:37.872Z,0.60
2019-05-11T22:16:08.497Z,1.27
2019-05-11T22:18:38.056Z,0.90
2019-05-11T22:21:08.601Z,0.80
2019-05-11T22:23:38.450Z,1.30
2019-05-11T22:26:07.760Z,0.77
2019-05-11T22:28:38.958Z,0.80
2019-05-11T22:31:07.842Z,0.77
2019-05-11T22:33:38.411Z,1.23
2019-05-11T22:36:06.206Z,0.93
2019-05-11T22:38:34.731Z,1.13
2019-05-11T22:41:03.014Z,0.60
2019-05-11T22:43:31.284Z,0.87
2019-05-11T22:45:59.591Z,1.33
2019-05-11T22:48:27.892Z,0.57
2019-05-11T22:50:58.480Z,0.80
2019-05-11T22:53:41.739Z,0.70
2019-05-11T22:55:56.319Z,0.70
2019-05-11T22:58:24.616Z,0.93
2019-05-11T23:00:52.912Z,0.40
2019-05-11T23:03:22.902Z,0.80
2019-05-11T23:05:52.122Z,0.70
2019-05-11T23:08:20.462Z,0.60
2019-05-11T23:10:48.885Z,0.73
2019-05-11T23:13:18.690Z,0.80
2019-05-11T23:15:47.757Z,0.93
2019-05-11T23:18:18.018Z,0.80
2019-05-11T23:20:47.884Z,0.80
2019-05-11T23:23:17.789Z,0.70
2019-05-11T23:25:46.487Z,0.60
2019-05-11T23:28:14.780Z,1.07
2019-05-11T23:30:43.187Z,0.70
2019-05-11T23:33:11.628Z,0.90
2019-05-11T23:35:39.903Z,1.03
2019-05-11T23:38:08.211Z,0.70
2019-05-11T23:40:37.999Z,0.80
2019-05-11T23:43:08.573Z,0.80
2019-05-11T23:45:38.187Z,0.60
2019-05-11T23:48:06.632Z,0.87
2019-05-11T23:50:34.921Z,1.10
2019-05-11T23:53:06.488Z,0.73
2019-05-11T23:55:33.222Z,0.60
2019-05-11T23:58:01.563Z,0.50
